Eagle River, AK (99577)

11:11 AM AKDT on September 01, 2015 (GMT -0800)
Chatanika Loop | | Change Station
CLOSE
Current Station
Personal Weather Station
Location: Eagle River, AK
Elevation: 590 ft
Nearby Weather Stations
Active Advisory: Freeze Warning Active Notice: Record Report

Elev 590 ft 61.32 °N, 149.54 °W | Updated 6 minutes ago

Clear
Clear
48.4 °F
Feels Like 48 °F
N
2.0
Wind Variable Wind from NE
Gusts 4.0 mph

Today
High -- | Low -- °F
--% Chance of Precip.
Yesterday
High -- | Low -- °F
Precip. -- in
6:49 AM 9:05 PM
Waning Gibbous, 87% visible
Pressure 30.02 in
Visibility 10.0 miles
Clouds Clear
Windchill 48 °F
Dew Point 31 °F
Humidity 52%
Rainfall 0.00 in
Snow Depth Not available.
UV 3 out of 12
Pollen Not available.
Air Quality Not available.
Flu Activity Not available.
METAR PABV 011906Z AUTO 19004KT 10SM CLR 11/M01 A2999 RMK AO2 SLP164 T01111006
Pressure 30.02 in
Visibility 10.0 miles
Clouds Clear
Windchill 48 °F
Dew Point 31 °F
Humidity 52%
Rainfall 0.00 in
Snow Depth Not available.
UV 3 out of 12
Pollen Not available.
Air Quality Not available.
Flu Activity Not available.
METAR PABV 011906Z AUTO 19004KT 10SM CLR 11/M01 A2999 RMK AO2 SLP164 T01111006

10-Day Weather Forecast

×

Almanac

Astronomy

Sep. 01, 2015 Rise Set
Actual Time
Civil Twilight
Nautical Twilight
Astronomical Twilight
Moon
Length of Visible Light
Length of Day
Tomorrow will be .
, % of the Moon is Illuminated

Today's Extremes

State Highs State Lows

Community

WunderPhotos

Upload Photos

1,851,596 photos uploaded!

WunderBlogs® & News

Nearby

Air Quality

  Air Quality AQ Index Pollutant
Not available.

Snow Depth

Station Depth Elevation

Earthquake Activity

City Distance Mag. Time & Date
Minimum magnitude displayed is 2.5.

Coastal Water Temperatures

Place Temperature

Stations

Nearby Weather Stations

Station Location Temp. Windchill Dew Point Humidity Wind Precip. Elev Updated Type
                   
Freeze Warning
Statement as of 5:01 AM AKDT on September 01, 2015

... Freeze warning in effect from 3 am to 8 am akdt Wednesday...

The National Weather Service in Anchorage has issued a freeze
warning... which is in effect from 3 am to 8 am akdt Wednesday.

* Location... portions of Anchorage and the Matanuska Valley.

* Temperatures... upper 20s to lower 30s.

* Timing... temperatures will drop below freezing early Wednesday
morning. The coldest temperatures and longest duration of sub-
freezing temperatures will be from east Anchorage northward to
The Eagle River Valley and from Wasilla westward in the
Matanuska Valley.

* Impacts... sensitive outdoor plants and other vegetation may be
damaged or killed by cold temperatures if left unprotected.

Precautionary/preparedness actions...

A freeze warning means sub-freezing temperatures are imminent or
highly likely. These conditions will kill crops and other
sensitive vegetation.